Time;durP1;ratioP1;P1;durP2;ratioP2;P2;SDS_P1;SDS_P2;PMS_P1;PMS_P2;Temp;Humidity;BMP_temperature;BMP_pressure;BME280_temperature;BME280_humidity;BME280_pressure;Samples;Min_cycle;Max_cycle;Signal;HPM_P1;HPM_P2
2022/10/02 00:02:27;;;;;;;;;;;15.30;99.90;;;;;;5045417;28;19913;-64
2022/10/02 00:04:52;;;;;;;;;;;15.20;99.90;;;;;;5067608;28;19928;-64
2022/10/02 00:07:19;;;;;;;;;;;15.30;99.90;;;;;;5062675;28;19921;-64
2022/10/02 00:09:48;;;;;;;;;;;15.20;99.90;;;;;;5062564;28;19920;-67
2022/10/02 00:12:15;;;;;;;;;;;15.20;99.90;;;;;;5066627;28;19909;-64
2022/10/02 00:14:43;;;;;;;;;;;15.20;99.90;;;;;;5059061;28;20354;-63
2022/10/02 00:17:15;;;;;;;;;;;15.20;99.90;;;;;;5066341;28;19913;-63
2022/10/02 00:19:41;;;;;;;;;;;15.10;99.90;;;;;;5054032;28;19938;-63
2022/10/02 00:22:09;;;;;;;;;;;15.10;99.90;;;;;;5064195;28;20361;-63
2022/10/02 00:24:37;;;;;;;;;;;15.10;99.90;;;;;;5053894;28;20003;-63
2022/10/02 00:27:14;;;;;;;;;;;15.10;99.90;;;;;;5062487;28;19916;-64
2022/10/02 00:29:45;;;;;;;;;;;15.00;99.90;;;;;;5069895;28;19912;-64
2022/10/02 00:32:29;;;;;;;;;;;14.90;99.90;;;;;;5067977;28;19919;-63
2022/10/02 00:35:13;;;;;;;;;;;14.90;99.90;;;;;;5067673;28;19913;-64
2022/10/02 00:37:57;;;;;;;;;;;14.90;99.90;;;;;;5062339;28;20281;-64
2022/10/02 00:40:36;;;;;;;;;;;14.90;99.90;;;;;;5068205;28;20019;-65
2022/10/02 00:43:21;;;;;;;;;;;14.90;99.90;;;;;;5064781;28;19908;-63
2022/10/02 00:45:55;;;;;;;;;;;14.80;99.90;;;;;;5072274;28;20030;-63
2022/10/02 00:48:26;;;;;;;;;;;14.90;99.90;;;;;;5065642;28;19915;-64
2022/10/02 00:51:07;;;;;;;;;;;14.90;99.90;;;;;;5067824;28;19920;-63
2022/10/02 00:53:55;;;;;;;;;;;14.90;99.90;;;;;;5069328;28;20236;-63
2022/10/02 00:56:31;;;;;;;;;;;15.00;99.90;;;;;;5018335;28;19916;-64
2022/10/02 00:59:16;;;;;;;;;;;15.00;99.90;;;;;;5073527;28;20370;-63
2022/10/02 01:01:47;;;;;;;;;;;15.10;99.90;;;;;;5071285;28;20362;-63
2022/10/02 01:04:14;;;;;;;;;;;15.00;99.90;;;;;;5071488;28;19948;-63
2022/10/02 01:06:40;;;;;;;;;;;15.00;99.90;;;;;;5063965;28;19920;-65
2022/10/02 01:09:06;;;;;;;;;;;14.90;99.90;;;;;;5053977;28;19924;-63
2022/10/02 01:11:32;;;;;;;;;;;15.00;99.90;;;;;;5063490;28;19913;-64
2022/10/02 01:13:57;;;;;;;;;;;15.00;99.90;;;;;;5047304;28;20348;-64
2022/10/02 01:16:23;;;;;;;;;;;15.10;99.90;;;;;;5066910;28;19982;-63
2022/10/02 01:18:49;;;;;;;;;;;15.00;99.90;;;;;;5066948;28;19912;-65
2022/10/02 01:21:17;;;;;;;;;;;15.00;99.90;;;;;;5068290;28;20314;-63
2022/10/02 01:23:48;;;;;;;;;;;15.00;99.90;;;;;;5055604;28;19920;-63
2022/10/02 01:26:13;;;;;;;;;;;15.00;99.90;;;;;;5063601;28;20011;-63
2022/10/02 01:28:39;;;;;;;;;;;15.00;99.90;;;;;;5070199;28;20015;-63
2022/10/02 01:31:09;;;;;;;;;;;15.10;99.90;;;;;;5073530;28;20046;-63
2022/10/02 01:33:36;;;;;;;;;;;15.10;99.90;;;;;;5043433;28;19913;-63
2022/10/02 01:36:02;;;;;;;;;;;15.00;99.90;;;;;;5056513;28;19920;-63
2022/10/02 01:38:28;;;;;;;;;;;15.00;99.90;;;;;;5067349;28;19912;-64
2022/10/02 01:40:53;;;;;;;;;;;15.10;99.90;;;;;;5065247;28;20373;-64
2022/10/02 01:43:21;;;;;;;;;;;15.10;99.90;;;;;;5063926;28;19920;-65
2022/10/02 01:45:52;;;;;;;;;;;15.00;99.90;;;;;;5064853;28;19944;-63
2022/10/02 01:48:32;;;;;;;;;;;14.90;99.90;;;;;;5063542;28;19921;-63
2022/10/02 01:51:16;;;;;;;;;;;14.80;99.90;;;;;;5065803;28;19916;-64
2022/10/02 01:53:44;;;;;;;;;;;14.80;99.90;;;;;;5067599;28;19939;-64
2022/10/02 01:56:10;;;;;;;;;;;14.80;99.90;;;;;;5069798;28;19924;-64
2022/10/02 01:58:38;;;;;;;;;;;14.80;99.90;;;;;;5065302;28;19913;-64
2022/10/02 02:01:10;;;;;;;;;;;14.80;99.90;;;;;;5068190;28;20370;-64
2022/10/02 02:03:44;;;;;;;;;;;14.80;99.90;;;;;;5069108;28;19920;-64
2022/10/02 02:06:30;;;;;;;;;;;14.70;99.90;;;;;;5069711;28;20336;-64
2022/10/02 02:08:58;;;;;;;;;;;14.80;99.90;;;;;;5043717;28;20370;-64
2022/10/02 02:11:24;;;;;;;;;;;14.90;99.90;;;;;;5059092;28;19912;-64
2022/10/02 02:13:49;;;;;;;;;;;14.90;99.90;;;;;;5063240;28;19917;-63
2022/10/02 02:16:28;;;;;;;;;;;15.00;99.90;;;;;;5051932;28;19973;-65
2022/10/02 02:18:58;;;;;;;;;;;15.00;99.90;;;;;;5041057;28;19985;-65
2022/10/02 02:21:38;;;;;;;;;;;15.00;99.90;;;;;;5072116;28;19912;-64
2022/10/02 02:24:08;;;;;;;;;;;15.00;99.90;;;;;;5065813;28;19919;-63
2022/10/02 02:26:34;;;;;;;;;;;15.10;99.90;;;;;;5071594;28;20401;-65
2022/10/02 02:29:01;;;;;;;;;;;15.00;99.90;;;;;;5058717;28;20266;-64
2022/10/02 02:31:31;;;;;;;;;;;15.10;99.90;;;;;;5060747;28;20002;-65
2022/10/02 02:33:59;;;;;;;;;;;15.00;99.90;;;;;;5063722;28;19928;-65
2022/10/02 02:36:27;;;;;;;;;;;15.00;99.90;;;;;;5057460;28;19957;-63
2022/10/02 02:39:05;;;;;;;;;;;14.90;99.90;;;;;;5057883;28;19932;-64
2022/10/02 02:41:33;;;;;;;;;;;14.80;99.90;;;;;;5060543;28;20006;-64
2022/10/02 02:44:05;;;;;;;;;;;14.80;99.90;;;;;;5068470;28;19921;-64
2022/10/02 02:47:02;;;;;;;;;;;14.80;99.90;;;;;;5069994;28;19932;-63
2022/10/02 02:49:21;;;;;;;;;;;14.90;99.90;;;;;;5056093;28;19919;-63
2022/10/02 02:51:47;;;;;;;;;;;14.90;99.90;;;;;;5065510;28;19995;-63
2022/10/02 02:54:15;;;;;;;;;;;14.80;99.90;;;;;;5069275;28;19995;-64
2022/10/02 02:56:43;;;;;;;;;;;14.80;99.90;;;;;;5066811;28;20121;-64
2022/10/02 02:59:13;;;;;;;;;;;14.70;99.90;;;;;;5068872;28;20008;-64
2022/10/02 03:01:39;;;;;;;;;;;14.60;99.90;;;;;;5065289;28;19920;-65
2022/10/02 03:04:05;;;;;;;;;;;14.70;99.90;;;;;;5065143;28;20321;-63
2022/10/02 03:06:32;;;;;;;;;;;14.60;99.90;;;;;;5066433;28;20413;-63
2022/10/02 03:08:58;;;;;;;;;;;14.60;99.90;;;;;;5052331;28;19912;-64
2022/10/02 03:11:36;;;;;;;;;;;14.60;99.90;;;;;;5061297;28;20003;-64
2022/10/02 03:14:20;;;;;;;;;;;14.70;99.90;;;;;;5058708;28;19927;-64
2022/10/02 03:17:05;;;;;;;;;;;14.60;99.90;;;;;;5044247;28;19948;-64
2022/10/02 03:19:31;;;;;;;;;;;14.70;99.90;;;;;;5064633;28;19913;-64
2022/10/02 03:22:03;;;;;;;;;;;14.70;99.90;;;;;;5058392;28;20373;-64
2022/10/02 03:24:42;;;;;;;;;;;14.60;99.90;;;;;;5058306;28;19927;-65
2022/10/02 03:27:15;;;;;;;;;;;14.60;99.90;;;;;;5058363;28;19913;-64
2022/10/02 03:29:50;;;;;;;;;;;14.60;99.90;;;;;;5065699;28;19913;-64
2022/10/02 03:32:17;;;;;;;;;;;14.50;99.90;;;;;;5063538;28;19996;-63
2022/10/02 03:34:42;;;;;;;;;;;14.50;99.90;;;;;;5069151;28;19917;-64
2022/10/02 03:37:08;;;;;;;;;;;14.40;99.90;;;;;;5055500;28;19927;-64
2022/10/02 03:39:34;;;;;;;;;;;14.40;99.90;;;;;;5066650;28;19952;-64
2022/10/02 03:41:59;;;;;;;;;;;14.40;99.90;;;;;;5067860;28;19920;-64
2022/10/02 03:44:25;;;;;;;;;;;14.40;99.90;;;;;;5055945;28;20372;-63
2022/10/02 03:46:50;;;;;;;;;;;14.40;99.90;;;;;;5043097;28;19927;-63
2022/10/02 03:49:16;;;;;;;;;;;14.40;99.90;;;;;;5061356;28;19912;-64
2022/10/02 03:51:41;;;;;;;;;;;14.40;99.90;;;;;;5065456;28;21033;-63
2022/10/02 03:54:17;;;;;;;;;;;14.50;99.90;;;;;;5061922;28;20325;-64
2022/10/02 03:56:49;;;;;;;;;;;14.40;99.90;;;;;;5068460;28;19919;-63
2022/10/02 03:59:17;;;;;;;;;;;14.40;99.90;;;;;;5070006;28;19916;-64
2022/10/02 04:01:47;;;;;;;;;;;14.50;99.90;;;;;;5061415;28;19996;-64
2022/10/02 04:04:16;;;;;;;;;;;14.50;99.90;;;;;;5064143;28;19932;-63
2022/10/02 04:06:55;;;;;;;;;;;14.50;99.90;;;;;;5070041;28;20317;-63
2022/10/02 04:09:41;;;;;;;;;;;14.50;99.90;;;;;;5052734;28;19912;-63
2022/10/02 04:12:09;;;;;;;;;;;14.60;99.90;;;;;;5065277;28;19999;-63
2022/10/02 04:14:41;;;;;;;;;;;14.60;99.90;;;;;;5042685;28;19959;-63
2022/10/02 04:17:42;;;;;;;;;;;14.50;99.90;;;;;;5064963;28;19959;-64
2022/10/02 04:20:34;;;;;;;;;;;14.50;99.90;;;;;;5025752;28;19912;-64
2022/10/02 04:23:02;;;;;;;;;;;14.50;99.90;;;;;;5062418;28;19952;-64
2022/10/02 04:25:32;;;;;;;;;;;14.60;99.90;;;;;;5034949;28;19927;-65
2022/10/02 04:28:03;;;;;;;;;;;14.70;99.90;;;;;;5075431;28;19935;-63
2022/10/02 04:30:29;;;;;;;;;;;14.70;99.90;;;;;;5064473;28;20023;-64
2022/10/02 04:33:05;;;;;;;;;;;14.60;99.90;;;;;;5071390;28;19956;-63
2022/10/02 04:35:33;;;;;;;;;;;14.60;99.90;;;;;;5072257;28;19928;-63
2022/10/02 04:37:59;;;;;;;;;;;14.50;99.90;;;;;;5069254;28;19913;-63
2022/10/02 04:40:24;;;;;;;;;;;14.50;99.90;;;;;;5067319;28;19923;-63
2022/10/02 04:42:50;;;;;;;;;;;14.40;99.90;;;;;;5074971;28;19951;-63
2022/10/02 04:45:34;;;;;;;;;;;14.50;99.90;;;;;;5070187;28;19997;-64
2022/10/02 04:48:08;;;;;;;;;;;14.60;99.90;;;;;;5069702;28;20042;-64
2022/10/02 04:50:52;;;;;;;;;;;14.60;99.90;;;;;;5072575;28;19921;-63
2022/10/02 04:53:27;;;;;;;;;;;14.60;99.90;;;;;;5073966;28;19908;-63
2022/10/02 04:56:06;;;;;;;;;;;14.60;99.90;;;;;;5066475;28;19916;-63
2022/10/02 04:58:45;;;;;;;;;;;14.50;99.90;;;;;;5070110;28;19927;-63
2022/10/02 05:01:23;;;;;;;;;;;14.50;99.90;;;;;;5069714;28;20358;-63
2022/10/02 05:03:51;;;;;;;;;;;14.50;99.90;;;;;;5070419;28;19965;-63
2022/10/02 05:06:16;;;;;;;;;;;14.50;99.90;;;;;;5070294;28;19944;-63
2022/10/02 05:08:48;;;;;;;;;;;14.50;99.90;;;;;;5063646;28;20011;-63
2022/10/02 05:11:16;;;;;;;;;;;14.50;99.90;;;;;;5070197;28;19913;-63
2022/10/02 05:13:42;;;;;;;;;;;14.50;99.90;;;;;;5066176;28;20304;-64
2022/10/02 05:16:07;;;;;;;;;;;14.50;99.90;;;;;;5070202;28;19916;-64
2022/10/02 05:18:33;;;;;;;;;;;14.60;99.90;;;;;;5068520;28;19912;-64
2022/10/02 05:20:58;;;;;;;;;;;14.60;99.90;;;;;;5069479;28;19912;-63
2022/10/02 05:23:44;;;;;;;;;;;14.50;99.90;;;;;;5070111;28;19916;-63
2022/10/02 05:26:24;;;;;;;;;;;14.40;99.90;;;;;;5068227;28;19928;-64
2022/10/02 05:29:09;;;;;;;;;;;14.30;99.90;;;;;;5065916;28;19920;-62
2022/10/02 05:31:55;;;;;;;;;;;14.20;99.90;;;;;;5061396;28;19913;-63
2022/10/02 05:34:38;;;;;;;;;;;14.20;99.90;;;;;;5065268;28;19917;-64
2022/10/02 05:37:05;;;;;;;;;;;14.20;99.90;;;;;;5070372;28;19913;-63
2022/10/02 05:39:36;;;;;;;;;;;14.10;99.90;;;;;;5066416;28;19924;-63
2022/10/02 05:42:15;;;;;;;;;;;14.10;99.90;;;;;;5070124;28;19955;-62
2022/10/02 05:44:48;;;;;;;;;;;14.10;99.90;;;;;;5061899;28;19993;-62
2022/10/02 05:47:16;;;;;;;;;;;14.00;99.90;;;;;;5052682;28;19999;-62
2022/10/02 05:49:45;;;;;;;;;;;14.10;99.90;;;;;;5063178;28;19913;-62
2022/10/02 05:52:14;;;;;;;;;;;14.10;99.90;;;;;;5066588;28;19913;-63
2022/10/02 05:54:51;;;;;;;;;;;14.00;99.90;;;;;;5061316;28;19927;-62
2022/10/02 05:57:26;;;;;;;;;;;14.10;99.90;;;;;;5052620;28;19923;-63
2022/10/02 05:59:56;;;;;;;;;;;14.10;99.90;;;;;;5049245;28;20015;-63
2022/10/02 06:02:44;;;;;;;;;;;14.00;99.90;;;;;;5056570;28;19916;-63
2022/10/02 06:05:20;;;;;;;;;;;13.90;99.90;;;;;;5046904;28;20003;-62
2022/10/02 06:07:49;;;;;;;;;;;13.70;99.90;;;;;;5068062;28;19909;-63
2022/10/02 06:10:19;;;;;;;;;;;13.60;99.90;;;;;;5068673;28;19912;-62
2022/10/02 06:13:05;;;;;;;;;;;13.50;99.90;;;;;;5051521;28;19958;-62
2022/10/02 06:15:49;;;;;;;;;;;13.50;99.90;;;;;;5056315;28;19913;-62
2022/10/02 06:18:25;;;;;;;;;;;13.30;99.90;;;;;;5062317;28;19917;-62
2022/10/02 06:20:57;;;;;;;;;;;13.40;99.90;;;;;;5059828;28;20380;-62
2022/10/02 06:23:41;;;;;;;;;;;13.20;99.90;;;;;;5066487;28;19913;-63
2022/10/02 06:26:11;;;;;;;;;;;13.20;99.90;;;;;;5060203;28;19966;-62
2022/10/02 06:28:39;;;;;;;;;;;13.20;99.90;;;;;;5040237;28;19970;-62
2022/10/02 06:31:25;;;;;;;;;;;13.30;99.90;;;;;;5061838;28;19920;-62
2022/10/02 06:33:54;;;;;;;;;;;13.40;99.90;;;;;;5049897;28;19920;-61
2022/10/02 06:36:27;;;;;;;;;;;13.40;99.90;;;;;;5067619;28;20389;-62
2022/10/02 06:38:53;;;;;;;;;;;13.40;99.90;;;;;;5050068;28;19912;-62
2022/10/02 06:41:32;;;;;;;;;;;13.50;99.90;;;;;;5069196;28;19917;-63
2022/10/02 06:43:58;;;;;;;;;;;13.60;99.90;;;;;;5067962;28;19921;-63
2022/10/02 06:46:23;;;;;;;;;;;13.50;99.90;;;;;;5059909;28;19972;-63
2022/10/02 06:48:49;;;;;;;;;;;13.60;99.90;;;;;;5048793;28;20405;-63
2022/10/02 06:51:15;;;;;;;;;;;13.60;99.90;;;;;;5069337;28;19909;-62
2022/10/02 06:54:00;;;;;;;;;;;13.70;99.90;;;;;;5068592;28;20107;-62
2022/10/02 06:56:46;;;;;;;;;;;13.70;99.90;;;;;;5068091;28;20383;-63
2022/10/02 06:59:38;;;;;;;;;;;13.70;99.90;;;;;;5065835;28;19955;-62
2022/10/02 07:02:22;;;;;;;;;;;13.70;99.90;;;;;;5059948;28;19920;-63
2022/10/02 07:04:56;;;;;;;;;;;13.60;99.90;;;;;;5060082;28;20381;-62
2022/10/02 07:07:40;;;;;;;;;;;13.60;99.90;;;;;;5061397;28;19927;-63
2022/10/02 07:10:25;;;;;;;;;;;13.60;99.90;;;;;;5063476;28;19995;-62
2022/10/02 07:13:11;;;;;;;;;;;13.50;99.90;;;;;;5060242;28;19913;-63
2022/10/02 07:15:55;;;;;;;;;;;13.30;99.90;;;;;;5047722;28;20011;-63
2022/10/02 07:18:57;;;;;;;;;;;13.30;99.90;;;;;;5063013;28;19973;-63
2022/10/02 07:21:25;;;;;;;;;;;13.20;99.90;;;;;;5005129;28;19913;-62
2022/10/02 07:23:57;;;;;;;;;;;13.30;99.90;;;;;;5052014;28;19930;-62
2022/10/02 07:26:41;;;;;;;;;;;13.40;99.90;;;;;;5038977;28;20377;-63
2022/10/02 07:29:19;;;;;;;;;;;13.40;99.90;;;;;;5065761;28;19926;-62
2022/10/02 07:32:09;;;;;;;;;;;13.50;99.90;;;;;;5042077;28;19916;-62
2022/10/02 07:34:55;;;;;;;;;;;13.50;99.90;;;;;;5040116;28;19917;-63
2022/10/02 07:37:36;;;;;;;;;;;13.50;99.90;;;;;;5062722;28;19920;-61
2022/10/02 07:40:11;;;;;;;;;;;13.50;99.90;;;;;;5068134;28;20145;-62
2022/10/02 07:42:43;;;;;;;;;;;13.40;99.90;;;;;;5042766;28;19913;-62
2022/10/02 07:45:27;;;;;;;;;;;13.40;99.90;;;;;;5035160;28;20070;-62
2022/10/02 07:48:11;;;;;;;;;;;13.50;99.90;;;;;;5064396;28;20354;-62
2022/10/02 07:50:37;;;;;;;;;;;13.50;99.90;;;;;;5070739;28;19912;-63
2022/10/02 07:53:02;;;;;;;;;;;13.60;99.90;;;;;;5068154;28;20242;-63
2022/10/02 07:55:28;;;;;;;;;;;13.50;99.90;;;;;;5068532;28;19916;-63
2022/10/02 07:58:14;;;;;;;;;;;13.50;99.90;;;;;;5064780;28;20428;-63
2022/10/02 08:00:43;;;;;;;;;;;13.40;99.90;;;;;;5053002;28;19952;-64
2022/10/02 08:03:18;;;;;;;;;;;13.50;99.90;;;;;;5065556;28;19913;-62
2022/10/02 08:05:48;;;;;;;;;;;13.50;99.90;;;;;;5069661;28;19958;-61
2022/10/02 08:08:17;;;;;;;;;;;13.50;99.90;;;;;;5067074;28;19944;-63
2022/10/02 08:10:45;;;;;;;;;;;13.60;99.90;;;;;;5057314;28;20411;-62
2022/10/02 08:13:21;;;;;;;;;;;13.60;99.90;;;;;;5054935;28;19925;-62
2022/10/02 08:15:49;;;;;;;;;;;13.60;99.90;;;;;;5067987;28;20384;-63
2022/10/02 08:18:22;;;;;;;;;;;13.60;99.90;;;;;;5062629;28;20387;-62
2022/10/02 08:20:48;;;;;;;;;;;13.70;99.90;;;;;;5045449;28;19977;-63
2022/10/02 08:23:13;;;;;;;;;;;13.80;99.90;;;;;;5050750;28;20057;-62
2022/10/02 08:25:46;;;;;;;;;;;13.70;99.90;;;;;;5068877;28;19924;-63
2022/10/02 08:28:18;;;;;;;;;;;13.80;99.90;;;;;;5065612;28;19913;-62
2022/10/02 08:30:44;;;;;;;;;;;13.90;99.90;;;;;;5060770;28;20061;-63
2022/10/02 08:33:12;;;;;;;;;;;13.90;99.90;;;;;;5052141;28;20378;-63
2022/10/02 08:35:41;;;;;;;;;;;14.10;99.90;;;;;;5039200;28;19924;-63
2022/10/02 08:38:42;;;;;;;;;;;14.10;99.90;;;;;;5063275;28;19912;-62
2022/10/02 08:41:11;;;;;;;;;;;14.10;99.90;;;;;;4967568;28;20013;-62
2022/10/02 08:43:43;;;;;;;;;;;14.10;99.90;;;;;;5042631;28;19920;-63
2022/10/02 08:46:15;;;;;;;;;;;14.10;99.90;;;;;;5061239;28;19935;-63
2022/10/02 08:48:41;;;;;;;;;;;14.20;99.90;;;;;;5061034;28;19913;-63
2022/10/02 08:51:16;;;;;;;;;;;14.30;99.90;;;;;;5066455;28;20371;-64
2022/10/02 08:54:00;;;;;;;;;;;14.40;99.90;;;;;;5064950;28;20332;-64
2022/10/02 08:56:35;;;;;;;;;;;14.40;99.90;;;;;;5062578;28;19923;-63
2022/10/02 08:59:18;;;;;;;;;;;14.50;99.90;;;;;;5062109;28;19926;-63
2022/10/02 09:01:47;;;;;;;;;;;14.60;99.90;;;;;;5070787;28;19935;-64
2022/10/02 09:04:18;;;;;;;;;;;14.70;99.90;;;;;;5061604;28;19912;-63
2022/10/02 09:06:44;;;;;;;;;;;14.80;99.90;;;;;;5064967;28;19925;-63
2022/10/02 09:09:10;;;;;;;;;;;14.70;99.90;;;;;;5065727;28;19916;-63
2022/10/02 09:11:45;;;;;;;;;;;14.80;99.90;;;;;;5057728;28;20302;-64
2022/10/02 09:14:20;;;;;;;;;;;14.80;99.90;;;;;;5062868;28;19913;-64
2022/10/02 09:16:45;;;;;;;;;;;14.90;99.90;;;;;;5069174;28;19959;-64
2022/10/02 09:19:29;;;;;;;;;;;14.80;99.90;;;;;;5063652;28;19917;-64
2022/10/02 09:22:19;;;;;;;;;;;14.90;99.90;;;;;;5063283;28;19951;-64
2022/10/02 09:25:21;;;;;;;;;;;14.90;99.90;;;;;;5062944;28;20417;-63
2022/10/02 09:27:46;;;;;;;;;;;14.90;99.90;;;;;;4980231;28;19949;-63
2022/10/02 09:30:21;;;;;;;;;;;15.00;99.90;;;;;;5052035;28;19975;-64
2022/10/02 09:33:05;;;;;;;;;;;15.20;99.90;;;;;;5067310;28;19922;-64
2022/10/02 09:35:49;;;;;;;;;;;15.40;99.90;;;;;;5069398;28;20172;-63
2022/10/02 09:38:33;;;;;;;;;;;15.50;99.90;;;;;;5065608;28;19956;-64
2022/10/02 09:41:09;;;;;;;;;;;15.70;99.90;;;;;;5072227;28;20307;-64
2022/10/02 09:43:42;;;;;;;;;;;15.80;99.90;;;;;;5056119;28;19913;-65
2022/10/02 09:46:26;;;;;;;;;;;15.80;99.90;;;;;;5059404;28;19927;-64
2022/10/02 09:48:54;;;;;;;;;;;15.70;99.90;;;;;;5068917;28;19913;-64
2022/10/02 09:51:46;;;;;;;;;;;15.50;99.90;;;;;;5052263;28;19912;-63
2022/10/02 09:54:24;;;;;;;;;;;15.30;99.90;;;;;;5064244;28;20377;-64
2022/10/02 09:57:10;;;;;;;;;;;15.20;99.90;;;;;;5062693;28;19962;-64
2022/10/02 09:59:57;;;;;;;;;;;15.10;99.90;;;;;;5064791;28;19915;-64
2022/10/02 10:02:41;;;;;;;;;;;15.00;99.90;;;;;;5072136;28;19916;-64
2022/10/02 10:05:25;;;;;;;;;;;14.90;99.90;;;;;;5071840;28;19923;-64
2022/10/02 10:07:56;;;;;;;;;;;15.00;99.90;;;;;;5068435;28;19913;-64
2022/10/02 10:10:37;;;;;;;;;;;14.90;99.90;;;;;;5055405;28;19909;-63
2022/10/02 10:13:21;;;;;;;;;;;14.90;99.90;;;;;;5066701;28;19912;-64
2022/10/02 10:15:46;;;;;;;;;;;15.00;99.90;;;;;;5062304;28;19917;-63
2022/10/02 10:18:27;;;;;;;;;;;15.10;99.90;;;;;;5046944;28;20326;-63
2022/10/02 10:21:11;;;;;;;;;;;15.20;99.90;;;;;;5069534;28;19920;-63
2022/10/02 10:24:03;;;;;;;;;;;15.40;99.90;;;;;;5070164;28;20332;-64
2022/10/02 10:26:42;;;;;;;;;;;15.40;99.90;;;;;;5061060;28;20354;-65
2022/10/02 10:29:30;;;;;;;;;;;15.40;99.90;;;;;;5071704;28;19913;-63
2022/10/02 10:32:10;;;;;;;;;;;15.50;99.90;;;;;;4999839;28;20361;-64
2022/10/02 10:34:48;;;;;;;;;;;15.50;99.90;;;;;;5066037;28;19916;-64
2022/10/02 10:40:24;;;;;;;;;;;15.60;99.90;;;;;;5070655;28;19916;-64
2022/10/02 10:42:52;;;;;;;;;;;15.60;99.90;;;;;;5060287;28;20357;-64
2022/10/02 10:45:24;;;;;;;;;;;15.70;99.90;;;;;;5067671;28;20501;-65
2022/10/02 10:47:58;;;;;;;;;;;15.70;99.90;;;;;;5048245;28;19927;-65
2022/10/02 10:50:34;;;;;;;;;;;15.80;99.90;;;;;;5060767;28;20290;-64
2022/10/02 10:53:10;;;;;;;;;;;15.80;99.90;;;;;;5066640;28;20380;-64
2022/10/02 10:55:51;;;;;;;;;;;16.00;99.90;;;;;;5069877;28;19923;-63
2022/10/02 10:58:21;;;;;;;;;;;16.00;99.90;;;;;;5064827;28;19990;-65
2022/10/02 11:00:49;;;;;;;;;;;16.00;99.90;;;;;;5061121;28;20388;-65
2022/10/02 11:03:31;;;;;;;;;;;16.10;99.90;;;;;;5068906;28;19963;-64
2022/10/02 11:06:11;;;;;;;;;;;16.00;99.90;;;;;;5049518;28;19985;-65
2022/10/02 11:08:54;;;;;;;;;;;16.10;99.90;;;;;;5068716;28;19921;-66
2022/10/02 11:11:35;;;;;;;;;;;16.30;99.90;;;;;;5065959;28;19916;-64
2022/10/02 11:14:04;;;;;;;;;;;16.50;99.90;;;;;;5073990;28;19968;-64
2022/10/02 11:16:32;;;;;;;;;;;16.40;99.90;;;;;;5071218;28;19912;-63
2022/10/02 11:18:58;;;;;;;;;;;16.40;99.90;;;;;;5072505;28;19920;-65
2022/10/02 11:21:43;;;;;;;;;;;16.50;99.90;;;;;;5074390;28;19981;-64
2022/10/02 11:24:12;;;;;;;;;;;16.50;99.90;;;;;;5062279;28;20198;-66
2022/10/02 11:26:42;;;;;;;;;;;16.60;99.90;;;;;;5071223;28;19920;-66
2022/10/02 11:29:13;;;;;;;;;;;16.70;99.90;;;;;;5070080;28;19954;-66
2022/10/02 11:31:49;;;;;;;;;;;16.90;99.90;;;;;;5067907;28;19966;-67
2022/10/02 11:34:27;;;;;;;;;;;16.90;99.90;;;;;;5058603;28;19939;-65
2022/10/02 11:36:55;;;;;;;;;;;17.00;99.90;;;;;;5068422;28;19916;-64
2022/10/02 11:39:40;;;;;;;;;;;17.00;99.90;;;;;;5058938;28;19958;-64
2022/10/02 11:42:05;;;;;;;;;;;16.80;99.90;;;;;;5045257;28;20259;-64
2022/10/02 11:44:34;;;;;;;;;;;17.00;99.90;;;;;;5071011;28;19909;-65
2022/10/02 11:47:20;;;;;;;;;;;17.10;99.90;;;;;;5065436;28;20273;-65
2022/10/02 11:49:58;;;;;;;;;;;17.30;99.90;;;;;;5013326;28;19912;-64
2022/10/02 11:52:36;;;;;;;;;;;17.40;99.90;;;;;;5059384;28;19920;-63
2022/10/02 11:55:25;;;;;;;;;;;17.60;99.90;;;;;;5054508;28;20373;-64
2022/10/02 11:58:08;;;;;;;;;;;17.80;99.90;;;;;;5036919;28;20408;-65
2022/10/02 12:00:39;;;;;;;;;;;18.10;99.90;;;;;;5069118;28;20000;-65
2022/10/02 12:03:14;;;;;;;;;;;18.30;99.90;;;;;;5062937;28;20408;-63
2022/10/02 12:05:54;;;;;;;;;;;18.20;99.90;;;;;;5063531;28;19929;-65
2022/10/02 12:08:43;;;;;;;;;;;18.00;99.90;;;;;;5048965;28;20301;-65
2022/10/02 12:11:20;;;;;;;;;;;17.90;99.90;;;;;;5052897;28;19931;-65
2022/10/02 12:13:46;;;;;;;;;;;18.20;99.90;;;;;;5066991;28;19917;-66
2022/10/02 12:16:30;;;;;;;;;;;18.30;99.90;;;;;;5062818;28;19921;-65
2022/10/02 12:19:19;;;;;;;;;;;18.30;99.90;;;;;;5060952;28;20527;-65
2022/10/02 12:26:57;;;;;;;;;;;18.10;99.90;;;;;;5067753;28;19920;-65
2022/10/02 12:27:38;;;;;;;;;;;17.80;99.90;;;;;;5072119;28;19916;-64
2022/10/02 12:30:14;;;;;;;;;;;17.70;99.90;;;;;;5072130;28;19913;-65
2022/10/02 12:32:45;;;;;;;;;;;17.90;99.90;;;;;;5048601;28;19999;-65
2022/10/02 12:35:22;;;;;;;;;;;18.00;99.90;;;;;;5070647;28;20390;-64
2022/10/02 12:37:54;;;;;;;;;;;18.10;99.90;;;;;;5063824;28;19921;-65
2022/10/02 12:40:24;;;;;;;;;;;18.20;99.90;;;;;;5069986;28;20004;-67
2022/10/02 12:43:07;;;;;;;;;;;18.40;99.90;;;;;;5068102;28;20015;-65
2022/10/02 12:45:32;;;;;;;;;;;18.60;99.90;;;;;;5069471;28;19921;-65
2022/10/02 12:48:11;;;;;;;;;;;18.60;99.90;;;;;;5068630;28;19917;-65
2022/10/02 12:50:40;;;;;;;;;;;18.70;99.90;;;;;;5071011;28;20007;-67
2022/10/02 12:53:15;;;;;;;;;;;18.80;99.90;;;;;;5067885;28;19920;-66
2022/10/02 12:55:54;;;;;;;;;;;18.90;99.90;;;;;;5069949;28;20393;-65
2022/10/02 12:58:36;;;;;;;;;;;18.80;99.90;;;;;;5052846;28;19913;-65
2022/10/02 13:01:17;;;;;;;;;;;18.70;99.80;;;;;;5069920;28;19913;-65
2022/10/02 13:03:43;;;;;;;;;;;18.70;98.50;;;;;;5057903;28;19919;-64
2022/10/02 13:06:28;;;;;;;;;;;19.10;96.80;;;;;;5057874;28;19920;-65
2022/10/02 13:08:54;;;;;;;;;;;19.50;96.00;;;;;;5065699;28;20258;-65
2022/10/02 13:11:25;;;;;;;;;;;19.60;93.30;;;;;;5068905;28;20003;-65
2022/10/02 13:13:51;;;;;;;;;;;19.40;93.10;;;;;;5065357;28;20007;-66
2022/10/02 13:16:21;;;;;;;;;;;19.60;91.50;;;;;;5066669;28;20019;-64
2022/10/02 13:18:56;;;;;;;;;;;19.60;84.50;;;;;;5075511;28;19978;-65
2022/10/02 13:21:34;;;;;;;;;;;19.40;86.00;;;;;;5048604;28;20515;-66
2022/10/02 13:23:59;;;;;;;;;;;19.30;85.20;;;;;;5064840;28;20443;-66
2022/10/02 13:26:32;;;;;;;;;;;19.00;89.70;;;;;;5045809;28;19967;-65
2022/10/02 13:29:13;;;;;;;;;;;19.00;88.50;;;;;;5066557;28;19923;-65
2022/10/02 13:31:47;;;;;;;;;;;18.60;85.90;;;;;;5063948;28;19913;-64
2022/10/02 13:34:22;;;;;;;;;;;18.30;89.30;;;;;;5062730;28;19970;-65
2022/10/02 13:36:54;;;;;;;;;;;18.10;91.30;;;;;;5066932;28;19921;-65
2022/10/02 13:39:26;;;;;;;;;;;18.10;90.60;;;;;;5043978;28;19920;-64
2022/10/02 13:41:51;;;;;;;;;;;18.00;90.50;;;;;;5066981;28;19981;-66
2022/10/02 13:44:17;;;;;;;;;;;18.00;90.80;;;;;;5061523;28;19913;-65
2022/10/02 13:46:52;;;;;;;;;;;18.10;90.70;;;;;;5061207;28;20295;-65
2022/10/02 13:49:31;;;;;;;;;;;18.20;90.80;;;;;;5051946;28;19912;-64
2022/10/02 13:52:05;;;;;;;;;;;18.20;90.10;;;;;;5071957;28;19912;-66
2022/10/02 13:54:47;;;;;;;;;;;18.20;88.00;;;;;;5069351;28;20297;-66
2022/10/02 13:57:28;;;;;;;;;;;18.30;85.60;;;;;;5068355;28;20054;-65
2022/10/02 14:00:03;;;;;;;;;;;18.30;85.10;;;;;;5063276;28;19919;-64
2022/10/02 14:02:56;;;;;;;;;;;18.40;86.40;;;;;;5045118;28;19921;-66
2022/10/02 14:05:33;;;;;;;;;;;18.40;85.10;;;;;;5046272;28;19926;-64
2022/10/02 14:08:17;;;;;;;;;;;18.40;85.80;;;;;;5070132;28;19912;-65
2022/10/02 14:10:46;;;;;;;;;;;18.60;82.40;;;;;;5050702;28;19917;-66
2022/10/02 14:13:24;;;;;;;;;;;18.60;82.30;;;;;;5064816;28;19913;-66
2022/10/02 14:15:50;;;;;;;;;;;18.70;83.30;;;;;;5042482;28;19912;-65
2022/10/02 14:18:30;;;;;;;;;;;18.90;80.90;;;;;;5065169;28;20388;-65
2022/10/02 14:20:59;;;;;;;;;;;19.10;80.30;;;;;;5064330;28;19944;-65
2022/10/02 14:24:00;;;;;;;;;;;19.00;79.60;;;;;;5066884;28;19923;-67
2022/10/02 14:26:37;;;;;;;;;;;18.90;78.70;;;;;;4980121;28;19930;-65
2022/10/02 14:29:12;;;;;;;;;;;18.80;79.30;;;;;;5056012;28;19912;-66
2022/10/02 14:31:41;;;;;;;;;;;19.00;78.20;;;;;;5059504;28;20358;-65
2022/10/02 14:34:06;;;;;;;;;;;18.90;77.30;;;;;;5066469;28;19917;-65
2022/10/02 14:36:50;;;;;;;;;;;19.00;78.00;;;;;;5065047;28;20046;-65
2022/10/02 14:39:22;;;;;;;;;;;19.00;79.00;;;;;;5066204;28;19923;-66
2022/10/02 14:42:12;;;;;;;;;;;19.10;75.20;;;;;;5067266;28;19912;-66
2022/10/02 14:44:56;;;;;;;;;;;19.10;74.40;;;;;;5028561;28;19947;-66
2022/10/02 14:47:22;;;;;;;;;;;19.10;72.20;;;;;;5062555;28;19919;-66
2022/10/02 14:49:48;;;;;;;;;;;19.10;72.40;;;;;;5051405;28;19909;-65
2022/10/02 14:52:21;;;;;;;;;;;19.10;72.20;;;;;;5064972;28;19994;-65
2022/10/02 14:54:53;;;;;;;;;;;19.10;71.90;;;;;;5074033;28;19940;-65
2022/10/02 14:57:35;;;;;;;;;;;19.10;73.00;;;;;;5071656;28;19916;-65
2022/10/02 15:00:16;;;;;;;;;;;19.10;71.30;;;;;;5073772;28;19924;-65
2022/10/02 15:02:51;;;;;;;;;;;19.10;69.60;;;;;;5075488;28;19924;-68
2022/10/02 15:05:35;;;;;;;;;;;19.00;70.50;;;;;;5062448;28;19920;-65